Clam Gulch, AK (99568)

9:13 AM AKST on February 08, 2016 (GMT -0900)
mile 16.05 Oilwell Rd. | | Change Station
CLOSE
Current Station
Personal Weather Station
Location: Ninilchik, AK
Elevation: 1161 ft
Nearby Weather Stations

Elev 1161 ft 60.02 °N, 151.33 °W | Updated 32 seconds ago

Clear
Clear
33.1 °F
Feels Like 25 °F
N
9.8
Wind Variable Wind from ESE

Today
High -- | Low -- °F
--% Chance of Precip.
Yesterday
High -- | Low -- °F
Precip. -- in
Pressure 29.71 in
Visibility 10.0 miles
Clouds Clear
Windchill 25 °F
Dew Point 30 °F
Humidity 88%
Rainfall 0.04 in
Snow Depth Not available.
9:03 AM 5:36 PM
New Moon, 0% visible
METAR PASX 081756Z AUTO 07005KT 10SM CLR M02/M04 A2971 RMK AO1 11010 21030 52010
Pressure 29.71 in
Visibility 10.0 miles
Clouds Clear
Windchill 25 °F
Dew Point 30 °F
Humidity 88%
Rainfall 0.04 in
Snow Depth Not available.
9:03 AM 5:36 PM
New Moon, 0% visible
METAR PASX 081756Z AUTO 07005KT 10SM CLR M02/M04 A2971 RMK AO1 11010 21030 52010

10-Day Weather Forecast

Almanac

Astronomy

Feb. 08, 2016 Rise Set
Actual Time
Civil Twilight
Nautical Twilight
Astronomical Twilight
Moon
Length of Visible Light
Length of Day
Tomorrow will be .
, % of the Moon is Illuminated

Today's Extremes

State Highs State Lows

Community

WunderPhotos

Upload Photos

1,891,475 photos uploaded!

WunderBlog® & News

Nearby

Air Quality

  Air Quality AQ Index Pollutant
Not available.

Snow Depth

Station Depth Elevation

Earthquake Activity

City Distance Mag. Time & Date
Minimum magnitude displayed is 2.5.

Coastal Water Temperatures

Place Temperature

Stations

Nearby Weather Stations

Station Location Temp. Windchill Dew Point Humidity Wind Precip. Elev Updated Type
                   

Watches & Warnings

There are currently no watches in effect.